createdAt,value
2022-08-09T00:02:51.641Z,102840.78
2022-08-09T00:08:31.951Z,102837.50
2022-08-09T00:13:56.520Z,102847.25
2022-08-09T00:19:20.299Z,102844.72
2022-08-09T00:24:44.818Z,102847.44
2022-08-09T00:30:25.502Z,102836.94
2022-08-09T00:35:50.407Z,102846.97
2022-08-09T00:44:10.586Z,102843.59
2022-08-09T00:47:05.133Z,102839.31
2022-08-09T00:52:31.117Z,102838.47
2022-08-09T00:57:59.131Z,102837.59
2022-08-09T01:03:28.352Z,102847.50
2022-08-09T01:08:59.740Z,102837.03
2022-08-09T01:14:30.544Z,102847.47
2022-08-09T01:20:02.524Z,102839.66
2022-08-09T01:25:41.459Z,102835.28
2022-08-09T01:31:23.319Z,102822.09
2022-08-09T01:36:57.630Z,102839.00
2022-08-09T01:42:21.329Z,102846.03
2022-08-09T01:47:46.242Z,102849.66
2022-08-09T01:53:19.594Z,102848.03
2022-08-09T01:58:43.740Z,102841.75
2022-08-09T02:04:14.400Z,102845.22
2022-08-09T02:09:42.401Z,102841.75
2022-08-09T02:15:07.792Z,102846.16
2022-08-09T02:20:34.191Z,102843.50
2022-08-09T02:25:59.670Z,102838.31
2022-08-09T02:31:26.025Z,102836.69
2022-08-09T02:36:53.937Z,102826.19
2022-08-09T02:42:24.743Z,102834.22
2022-08-09T02:47:59.170Z,102835.94
2022-08-09T02:53:27.585Z,102835.97
2022-08-09T02:58:50.748Z,102839.69
2022-08-09T03:04:19.287Z,102837.19
2022-08-09T03:09:54.302Z,102831.03
2022-08-09T03:15:22.835Z,102837.50
2022-08-09T03:20:47.082Z,102833.06
2022-08-09T03:26:11.569Z,102836.97
2022-08-09T03:31:42.503Z,102814.38
2022-08-09T03:37:55.548Z,102853.50
2022-08-09T03:43:06.902Z,102848.16
2022-08-09T03:48:31.417Z,102856.22
2022-08-09T03:53:55.737Z,102858.81
2022-08-09T03:59:27.187Z,102868.41
2022-08-09T04:04:50.960Z,102862.31
2022-08-09T04:10:14.126Z,102850.03
2022-08-09T04:16:18.523Z,102860.63
2022-08-09T04:21:27.902Z,102869.47
2022-08-09T04:26:53.007Z,102866.03
2022-08-09T04:32:31.387Z,102878.38
2022-08-09T04:37:56.826Z,102882.81
2022-08-09T04:43:20.254Z,102885.38
2022-08-09T04:48:50.459Z,102875.63
2022-08-09T04:54:21.592Z,102883.50
2022-08-09T04:59:45.382Z,102887.91
2022-08-09T05:05:14.735Z,102893.22
2022-08-09T05:10:54.985Z,102883.66
2022-08-09T05:16:18.189Z,102893.38
2022-08-09T05:21:47.165Z,102898.63
2022-08-09T05:27:20.757Z,102900.25
2022-08-09T05:32:43.863Z,102906.31
2022-08-09T05:38:08.365Z,102904.59
2022-08-09T05:43:35.206Z,102875.63
2022-08-09T05:48:59.551Z,102920.97
2022-08-09T05:54:24.556Z,102901.63
2022-08-09T05:59:47.656Z,102918.91
2022-08-09T06:05:12.111Z,102935.31
2022-08-09T06:10:40.439Z,102935.03
2022-08-09T06:16:04.921Z,102938.31
2022-08-09T06:21:28.434Z,102918.75
2022-08-09T06:26:55.028Z,102947.34
2022-08-09T06:32:53.093Z,102956.66
2022-08-09T06:38:07.435Z,102959.72
2022-08-09T06:43:34.100Z,102955.44
2022-08-09T06:49:00.723Z,102954.00
2022-08-09T06:54:23.799Z,102958.97
2022-08-09T07:00:56.139Z,102957.94
2022-08-09T07:06:02.781Z,102965.34
2022-08-09T07:11:23.572Z,102953.22
2022-08-09T07:16:55.362Z,102964.50
2022-08-09T07:22:34.467Z,102939.88
2022-08-09T07:27:58.759Z,102924.56
2022-08-09T07:33:30.921Z,102925.25
2022-08-09T07:39:12.062Z,102937.34
2022-08-09T07:44:51.823Z,102941.66
2022-08-09T07:50:18.400Z,102950.22
2022-08-09T07:56:03.517Z,102956.69
2022-08-09T08:01:33.968Z,102945.19
2022-08-09T08:07:00.175Z,102939.19
2022-08-09T08:12:33.713Z,102947.41
2022-08-09T08:17:58.131Z,102949.47
2022-08-09T08:23:23.260Z,102947.72
2022-08-09T08:28:50.892Z,102956.50
2022-08-09T08:34:14.206Z,102957.38
2022-08-09T08:39:43.419Z,102949.38
2022-08-09T08:45:11.691Z,102957.09
2022-08-09T08:50:37.080Z,102960.63
2022-08-09T08:56:02.951Z,102940.69
2022-08-09T09:01:35.414Z,102955.34
2022-08-09T09:07:11.017Z,102954.91
2022-08-09T09:12:36.090Z,102957.19
2022-08-09T09:17:59.393Z,102954.13
2022-08-09T09:23:41.640Z,102966.19
2022-08-09T09:29:17.103Z,102968.31
2022-08-09T09:34:45.018Z,102956.69
2022-08-09T09:40:09.874Z,102953.53
2022-08-09T09:51:38.400Z,102967.91
2022-08-09T09:58:03.291Z,102941.06
2022-08-09T10:02:59.341Z,102956.19
2022-08-09T10:08:27.962Z,102965.78
2022-08-09T10:13:53.633Z,102961.16
2022-08-09T10:19:18.357Z,102950.53
2022-08-09T10:24:46.719Z,102945.19
2022-08-09T10:36:01.129Z,102905.22
2022-08-09T10:41:26.034Z,102939.53
2022-08-09T10:48:13.401Z,102940.00
2022-08-09T10:53:21.224Z,102940.00
2022-08-09T10:58:49.445Z,102940.78
2022-08-09T11:04:27.917Z,102946.28
2022-08-09T11:09:59.772Z,102948.06
2022-08-09T11:15:33.839Z,102939.69
2022-08-09T11:21:01.926Z,102935.38
2022-08-09T11:26:52.209Z,102941.44
2022-08-09T11:32:50.676Z,102942.78
2022-08-09T11:38:43.225Z,102936.94
2022-08-09T11:44:49.744Z,102932.13
2022-08-09T11:50:55.856Z,102929.78
2022-08-09T11:56:08.402Z,102923.38
2022-08-09T12:02:18.409Z,102907.78
2022-08-09T12:07:20.735Z,102911.44
2022-08-09T12:12:47.694Z,102915.13
2022-08-09T12:18:29.775Z,102915.63
2022-08-09T12:24:06.468Z,102911.75
2022-08-09T12:29:52.487Z,102908.75
2022-08-09T12:35:21.875Z,102898.22
2022-08-09T12:40:46.741Z,102901.38
2022-08-09T12:46:17.162Z,102898.44
2022-08-09T12:52:01.282Z,102890.59
2022-08-09T12:57:38.582Z,102884.13
2022-08-09T13:03:04.995Z,102882.75
2022-08-09T13:08:39.671Z,102866.75
2022-08-09T13:14:41.697Z,102863.25
2022-08-09T13:20:08.396Z,102865.41
2022-08-09T13:25:42.332Z,102863.31
2022-08-09T13:32:13.482Z,102868.81
2022-08-09T13:36:52.181Z,102875.50
2022-08-09T13:42:18.799Z,102878.41
2022-08-09T13:47:49.221Z,102867.03
2022-08-09T13:53:16.143Z,102857.56
2022-08-09T13:58:41.153Z,102864.75
2022-08-09T14:04:11.463Z,102866.28
2022-08-09T14:09:35.660Z,102826.69
2022-08-09T14:15:00.471Z,102851.41
2022-08-09T14:20:29.089Z,102851.22
2022-08-09T14:25:53.176Z,102841.53
2022-08-09T14:31:18.375Z,102841.09
2022-08-09T14:36:46.753Z,102839.88
2022-08-09T14:42:12.422Z,102839.59
2022-08-09T14:47:46.649Z,102834.38
2022-08-09T14:53:13.773Z,102815.50
2022-08-09T14:58:37.874Z,102822.06
2022-08-09T15:04:09.781Z,102830.66
2022-08-09T15:10:07.461Z,102821.31
2022-08-09T15:15:18.551Z,102817.69
2022-08-09T15:21:57.535Z,102825.00
2022-08-09T15:26:31.167Z,102809.66
2022-08-09T15:31:56.971Z,102819.56
2022-08-09T15:37:57.252Z,102812.50
2022-08-09T15:43:24.682Z,102821.44
2022-08-09T15:48:58.950Z,102812.59
2022-08-09T15:54:48.960Z,102800.03
2022-08-09T16:00:21.890Z,102802.06
2022-08-09T16:05:54.233Z,102809.63
2022-08-09T16:11:21.885Z,102808.81
2022-08-09T16:16:45.808Z,102808.72
2022-08-09T16:22:14.787Z,102791.34
2022-08-09T16:27:40.849Z,102809.00
2022-08-09T16:33:10.037Z,102798.44
2022-08-09T16:38:33.102Z,102798.16
2022-08-09T16:43:59.547Z,102784.78
2022-08-09T16:50:31.645Z,102799.28
2022-08-09T16:55:15.578Z,102777.91
2022-08-09T17:00:44.204Z,102793.03
2022-08-09T17:06:28.798Z,102796.69
2022-08-09T17:11:53.317Z,102794.16
2022-08-09T17:17:26.707Z,102789.19
2022-08-09T17:22:52.550Z,102793.38
2022-08-09T17:28:16.809Z,102799.28
2022-08-09T17:33:45.727Z,102805.13
2022-08-09T17:39:25.149Z,102798.34
2022-08-09T17:44:49.699Z,102787.25
2022-08-09T17:50:25.042Z,102802.00
2022-08-09T17:56:03.241Z,102800.47
2022-08-09T18:02:03.314Z,102798.78
2022-08-09T18:07:23.285Z,102793.78
2022-08-09T18:13:53.574Z,102786.59
2022-08-09T18:18:32.706Z,102786.34
2022-08-09T18:24:09.706Z,102774.47
2022-08-09T18:30:41.448Z,102790.38
2022-08-09T18:35:19.382Z,102795.84
2022-08-09T18:41:06.353Z,102791.44
2022-08-09T18:46:51.309Z,102789.16
2022-08-09T18:52:18.722Z,102799.72
2022-08-09T18:57:56.319Z,102807.22
2022-08-09T19:03:19.671Z,102796.28
2022-08-09T19:08:42.866Z,102807.28
2022-08-09T19:14:24.462Z,102824.19
2022-08-09T19:19:58.692Z,102817.09
2022-08-09T19:25:42.545Z,102822.44
2022-08-09T19:31:09.112Z,102821.31
2022-08-09T19:36:32.860Z,102845.78
2022-08-09T19:41:56.703Z,102852.81
2022-08-09T19:47:26.931Z,102843.59
2022-08-09T19:52:52.125Z,102855.72
2022-08-09T19:58:16.056Z,102839.09
2022-08-09T20:04:16.995Z,102848.84
2022-08-09T20:09:44.827Z,102854.44
2022-08-09T20:16:36.349Z,102859.16
2022-08-09T20:21:00.325Z,102853.53
2022-08-09T20:26:25.331Z,102859.31
2022-08-09T20:32:17.104Z,102854.41
2022-08-09T20:38:18.492Z,102847.03
2022-08-09T20:43:25.279Z,102863.34
2022-08-09T20:48:49.636Z,102854.84
2022-08-09T20:54:17.091Z,102864.81
2022-08-09T21:00:20.799Z,102868.59
2022-08-09T21:05:54.482Z,102863.66
2022-08-09T21:16:57.340Z,102836.44
2022-08-09T21:22:36.099Z,102857.59
2022-08-09T21:28:04.239Z,102854.22
2022-08-09T21:33:36.188Z,102848.19
2022-08-09T21:39:00.096Z,102854.59
2022-08-09T21:44:33.371Z,102853.09
2022-08-09T21:49:57.993Z,102848.78
2022-08-09T21:55:23.101Z,102849.22
2022-08-09T22:00:48.713Z,102851.81
2022-08-09T22:06:15.565Z,102863.41
2022-08-09T22:12:09.478Z,102857.19
2022-08-09T22:17:23.592Z,102859.44
2022-08-09T22:22:48.466Z,102858.66
2022-08-09T22:28:11.769Z,102861.41
2022-08-09T22:39:57.135Z,102863.97
2022-08-09T22:48:16.426Z,102866.78
2022-08-09T22:50:52.763Z,102829.34
2022-08-09T22:56:33.399Z,102851.94
2022-08-09T23:01:57.992Z,102853.13
2022-08-09T23:08:27.631Z,102846.16
2022-08-09T23:13:23.937Z,102846.47
2022-08-09T23:18:47.172Z,102856.31
2022-08-09T23:24:11.748Z,102850.44
2022-08-09T23:29:34.879Z,102857.75
2022-08-09T23:34:57.971Z,102847.47
2022-08-09T23:40:22.804Z,102842.59
2022-08-09T23:45:45.887Z,102843.03
2022-08-09T23:51:09.212Z,102837.84
2022-08-09T23:56:53.147Z,102836.38
